sensor_id;sensor_type;location;lat;lon;timestamp;temperature;humidity
51878;SHT31;37911;51.526;11.536;2022-11-20T00:02:59;-3.36;84.23
51878;SHT31;37911;51.526;11.536;2022-11-20T00:06:05;-3.34;84.34
51878;SHT31;37911;51.526;11.536;2022-11-20T00:09:11;-3.30;84.27
51878;SHT31;37911;51.526;11.536;2022-11-20T00:12:15;-3.36;84.37
51878;SHT31;37911;51.526;11.536;2022-11-20T00:15:19;-3.39;84.50
51878;SHT31;37911;51.526;11.536;2022-11-20T00:18:23;-3.37;84.51
51878;SHT31;37911;51.526;11.536;2022-11-20T00:21:28;-3.33;84.39
51878;SHT31;37911;51.526;11.536;2022-11-20T00:24:34;-3.29;84.34
51878;SHT31;37911;51.526;11.536;2022-11-20T00:27:38;-3.29;84.25
51878;SHT31;37911;51.526;11.536;2022-11-20T00:30:42;-3.24;83.84
51878;SHT31;37911;51.526;11.536;2022-11-20T00:33:46;-3.26;83.49
51878;SHT31;37911;51.526;11.536;2022-11-20T00:36:50;-3.33;83.07
51878;SHT31;37911;51.526;11.536;2022-11-20T00:39:56;-3.46;83.05
51878;SHT31;37911;51.526;11.536;2022-11-20T00:43:00;-3.63;83.31
51878;SHT31;37911;51.526;11.536;2022-11-20T00:46:05;-3.82;84.07
51878;SHT31;37911;51.526;11.536;2022-11-20T00:49:09;-3.78;84.06
51878;SHT31;37911;51.526;11.536;2022-11-20T00:52:13;-3.84;84.04
51878;SHT31;37911;51.526;11.536;2022-11-20T00:55:19;-3.94;84.16
51878;SHT31;37911;51.526;11.536;2022-11-20T00:58:23;-3.97;84.58
51878;SHT31;37911;51.526;11.536;2022-11-20T01:01:28;-4.03;84.65
51878;SHT31;37911;51.526;11.536;2022-11-20T01:04:32;-4.06;84.75
51878;SHT31;37911;51.526;11.536;2022-11-20T01:07:36;-4.05;84.86
51878;SHT31;37911;51.526;11.536;2022-11-20T01:10:42;-4.01;84.48
51878;SHT31;37911;51.526;11.536;2022-11-20T01:13:46;-4.03;84.17
51878;SHT31;37911;51.526;11.536;2022-11-20T01:16:52;-4.03;84.34
51878;SHT31;37911;51.526;11.536;2022-11-20T01:19:55;-4.02;84.25
51878;SHT31;37911;51.526;11.536;2022-11-20T01:22:59;-4.05;84.09
51878;SHT31;37911;51.526;11.536;2022-11-20T01:26:09;-4.06;83.99
51878;SHT31;37911;51.526;11.536;2022-11-20T01:29:13;-4.08;83.98
51878;SHT31;37911;51.526;11.536;2022-11-20T01:32:17;-4.11;84.22
51878;SHT31;37911;51.526;11.536;2022-11-20T01:35:21;-4.19;84.51
51878;SHT31;37911;51.526;11.536;2022-11-20T01:38:25;-4.19;84.42
51878;SHT31;37911;51.526;11.536;2022-11-20T01:41:32;-4.16;84.74
51878;SHT31;37911;51.526;11.536;2022-11-20T01:44:52;-4.06;84.61
51878;SHT31;37911;51.526;11.536;2022-11-20T01:47:56;-4.09;84.41
51878;SHT31;37911;51.526;11.536;2022-11-20T01:51:01;-4.18;84.19
51878;SHT31;37911;51.526;11.536;2022-11-20T01:54:09;-4.21;84.18
51878;SHT31;37911;51.526;11.536;2022-11-20T01:57:17;-4.23;83.86
51878;SHT31;37911;51.526;11.536;2022-11-20T02:00:21;-4.30;83.72
51878;SHT31;37911;51.526;11.536;2022-11-20T02:03:26;-4.32;83.87
51878;SHT31;37911;51.526;11.536;2022-11-20T02:06:33;-4.33;84.00
51878;SHT31;37911;51.526;11.536;2022-11-20T02:09:38;-4.33;83.86
51878;SHT31;37911;51.526;11.536;2022-11-20T02:12:44;-4.28;83.67
51878;SHT31;37911;51.526;11.536;2022-11-20T02:16:01;-4.34;83.82
51878;SHT31;37911;51.526;11.536;2022-11-20T02:19:11;-4.41;83.86
51878;SHT31;37911;51.526;11.536;2022-11-20T02:22:20;-4.42;84.00
51878;SHT31;37911;51.526;11.536;2022-11-20T02:25:30;-4.49;84.17
51878;SHT31;37911;51.526;11.536;2022-11-20T02:28:34;-4.54;84.51
51878;SHT31;37911;51.526;11.536;2022-11-20T02:31:41;-4.45;84.51
51878;SHT31;37911;51.526;11.536;2022-11-20T02:34:45;-4.56;84.61
51878;SHT31;37911;51.526;11.536;2022-11-20T02:37:53;-4.64;85.11
51878;SHT31;37911;51.526;11.536;2022-11-20T02:41:00;-4.62;85.03
51878;SHT31;37911;51.526;11.536;2022-11-20T02:44:05;-4.62;84.88
51878;SHT31;37911;51.526;11.536;2022-11-20T02:47:09;-4.60;84.80
51878;SHT31;37911;51.526;11.536;2022-11-20T02:50:13;-4.67;84.84
51878;SHT31;37911;51.526;11.536;2022-11-20T02:53:16;-4.62;84.82
51878;SHT31;37911;51.526;11.536;2022-11-20T02:56:23;-4.57;84.59
51878;SHT31;37911;51.526;11.536;2022-11-20T02:59:27;-4.56;84.60
51878;SHT31;37911;51.526;11.536;2022-11-20T03:02:31;-4.59;84.75
51878;SHT31;37911;51.526;11.536;2022-11-20T03:05:35;-4.59;84.81
51878;SHT31;37911;51.526;11.536;2022-11-20T03:08:38;-4.59;84.67
51878;SHT31;37911;51.526;11.536;2022-11-20T03:11:45;-4.59;84.50
51878;SHT31;37911;51.526;11.536;2022-11-20T03:14:48;-4.57;84.47
51878;SHT31;37911;51.526;11.536;2022-11-20T03:17:53;-4.57;84.09
51878;SHT31;37911;51.526;11.536;2022-11-20T03:20:58;-4.69;83.72
51878;SHT31;37911;51.526;11.536;2022-11-20T03:24:02;-4.84;84.09
51878;SHT31;37911;51.526;11.536;2022-11-20T03:27:09;-4.83;84.44
51878;SHT31;37911;51.526;11.536;2022-11-20T03:30:13;-4.91;84.79
51878;SHT31;37911;51.526;11.536;2022-11-20T03:33:17;-4.94;85.31
51878;SHT31;37911;51.526;11.536;2022-11-20T03:36:21;-5.11;85.77
51878;SHT31;37911;51.526;11.536;2022-11-20T03:39:26;-5.05;86.00
51878;SHT31;37911;51.526;11.536;2022-11-20T03:42:33;-4.93;86.05
51878;SHT31;37911;51.526;11.536;2022-11-20T03:45:48;-4.87;85.85
51878;SHT31;37911;51.526;11.536;2022-11-20T03:48:52;-4.88;85.87
51878;SHT31;37911;51.526;11.536;2022-11-20T03:51:56;-4.93;85.88
51878;SHT31;37911;51.526;11.536;2022-11-20T03:55:00;-4.98;85.99
51878;SHT31;37911;51.526;11.536;2022-11-20T03:58:06;-4.91;86.04
51878;SHT31;37911;51.526;11.536;2022-11-20T04:01:11;-4.83;85.83
51878;SHT31;37911;51.526;11.536;2022-11-20T04:04:15;-4.81;85.95
51878;SHT31;37911;51.526;11.536;2022-11-20T04:07:19;-4.70;85.92
51878;SHT31;37911;51.526;11.536;2022-11-20T04:10:23;-4.63;85.79
51878;SHT31;37911;51.526;11.536;2022-11-20T04:13:29;-4.60;85.67
51878;SHT31;37911;51.526;11.536;2022-11-20T04:16:35;-4.56;85.56
51878;SHT31;37911;51.526;11.536;2022-11-20T04:19:39;-4.50;85.33
51878;SHT31;37911;51.526;11.536;2022-11-20T04:22:42;-4.45;85.24
51878;SHT31;37911;51.526;11.536;2022-11-20T04:25:46;-4.49;85.17
51878;SHT31;37911;51.526;11.536;2022-11-20T04:28:53;-4.46;85.16
51878;SHT31;37911;51.526;11.536;2022-11-20T04:31:57;-4.50;84.92
51878;SHT31;37911;51.526;11.536;2022-11-20T04:35:00;-4.59;85.25
51878;SHT31;37911;51.526;11.536;2022-11-20T04:38:04;-4.56;85.58
51878;SHT31;37911;51.526;11.536;2022-11-20T04:41:11;-4.57;85.42
51878;SHT31;37911;51.526;11.536;2022-11-20T04:44:18;-4.63;85.37
51878;SHT31;37911;51.526;11.536;2022-11-20T04:47:22;-4.60;85.52
51878;SHT31;37911;51.526;11.536;2022-11-20T04:50:26;-4.60;85.47
51878;SHT31;37911;51.526;11.536;2022-11-20T04:53:30;-4.57;85.15
51878;SHT31;37911;51.526;11.536;2022-11-20T04:56:34;-4.64;84.96
51878;SHT31;37911;51.526;11.536;2022-11-20T04:59:41;-4.76;85.53
51878;SHT31;37911;51.526;11.536;2022-11-20T05:02:44;-4.72;85.48
51878;SHT31;37911;51.526;11.536;2022-11-20T05:05:48;-4.81;85.39
51878;SHT31;37911;51.526;11.536;2022-11-20T05:08:52;-4.86;86.00
51878;SHT31;37911;51.526;11.536;2022-11-20T05:11:56;-4.79;86.30
51878;SHT31;37911;51.526;11.536;2022-11-20T05:15:03;-4.83;86.30
51878;SHT31;37911;51.526;11.536;2022-11-20T05:18:07;-4.90;86.58
51878;SHT31;37911;51.526;11.536;2022-11-20T05:21:12;-4.98;87.13
51878;SHT31;37911;51.526;11.536;2022-11-20T05:24:16;-4.97;87.03
51878;SHT31;37911;51.526;11.536;2022-11-20T05:27:20;-4.98;87.18
51878;SHT31;37911;51.526;11.536;2022-11-20T05:30:27;-5.03;87.31
51878;SHT31;37911;51.526;11.536;2022-11-20T05:33:32;-5.07;87.34
51878;SHT31;37911;51.526;11.536;2022-11-20T05:36:36;-5.00;87.33
51878;SHT31;37911;51.526;11.536;2022-11-20T05:39:40;-4.94;87.14
51878;SHT31;37911;51.526;11.536;2022-11-20T05:42:44;-4.88;86.89
51878;SHT31;37911;51.526;11.536;2022-11-20T05:45:57;-4.81;86.61
51878;SHT31;37911;51.526;11.536;2022-11-20T05:49:00;-4.81;86.24
51878;SHT31;37911;51.526;11.536;2022-11-20T05:52:04;-4.88;86.06
51878;SHT31;37911;51.526;11.536;2022-11-20T05:55:09;-4.87;86.10
51878;SHT31;37911;51.526;11.536;2022-11-20T05:58:13;-4.91;85.73
51878;SHT31;37911;51.526;11.536;2022-11-20T06:01:21;-4.93;85.60
51878;SHT31;37911;51.526;11.536;2022-11-20T06:04:25;-4.94;85.73
51878;SHT31;37911;51.526;11.536;2022-11-20T06:07:29;-5.00;85.65
51878;SHT31;37911;51.526;11.536;2022-11-20T06:10:33;-4.97;85.76
51878;SHT31;37911;51.526;11.536;2022-11-20T06:13:37;-5.00;85.77
51878;SHT31;37911;51.526;11.536;2022-11-20T06:16:45;-5.07;86.00
51878;SHT31;37911;51.526;11.536;2022-11-20T06:19:49;-5.00;86.05
51878;SHT31;37911;51.526;11.536;2022-11-20T06:22:53;-5.00;86.22
51878;SHT31;37911;51.526;11.536;2022-11-20T06:26:01;-5.00;86.45
51878;SHT31;37911;51.526;11.536;2022-11-20T06:29:04;-4.97;86.40
51878;SHT31;37911;51.526;11.536;2022-11-20T06:32:11;-4.97;86.60
51878;SHT31;37911;51.526;11.536;2022-11-20T06:35:15;-4.97;86.56
51878;SHT31;37911;51.526;11.536;2022-11-20T06:38:19;-5.00;86.87
51878;SHT31;37911;51.526;11.536;2022-11-20T06:41:23;-4.96;86.55
51878;SHT31;37911;51.526;11.536;2022-11-20T06:44:28;-5.09;86.83
51878;SHT31;37911;51.526;11.536;2022-11-20T06:47:35;-5.07;86.78
51878;SHT31;37911;51.526;11.536;2022-11-20T06:50:39;-5.00;86.67
51878;SHT31;37911;51.526;11.536;2022-11-20T06:53:44;-5.00;86.60
51878;SHT31;37911;51.526;11.536;2022-11-20T06:56:49;-5.03;86.59
51878;SHT31;37911;51.526;11.536;2022-11-20T06:59:53;-5.14;87.02
51878;SHT31;37911;51.526;11.536;2022-11-20T07:03:02;-5.14;87.01
51878;SHT31;37911;51.526;11.536;2022-11-20T07:06:07;-5.28;87.32
51878;SHT31;37911;51.526;11.536;2022-11-20T07:09:11;-5.25;87.43
51878;SHT31;37911;51.526;11.536;2022-11-20T07:12:15;-5.31;87.36
51878;SHT31;37911;51.526;11.536;2022-11-20T07:15:19;-5.25;87.40
51878;SHT31;37911;51.526;11.536;2022-11-20T07:18:29;-5.31;87.58
51878;SHT31;37911;51.526;11.536;2022-11-20T07:21:33;-5.25;87.89
51878;SHT31;37911;51.526;11.536;2022-11-20T07:24:37;-5.25;87.96
51878;SHT31;37911;51.526;11.536;2022-11-20T07:27:41;-5.19;87.80
51878;SHT31;37911;51.526;11.536;2022-11-20T07:30:50;-5.22;87.95
51878;SHT31;37911;51.526;11.536;2022-11-20T07:33:56;-5.14;88.09
51878;SHT31;37911;51.526;11.536;2022-11-20T07:37:01;-5.12;88.10
51878;SHT31;37911;51.526;11.536;2022-11-20T07:40:05;-5.04;88.08
51878;SHT31;37911;51.526;11.536;2022-11-20T07:43:09;-5.11;88.08
51878;SHT31;37911;51.526;11.536;2022-11-20T07:46:13;-5.11;88.31
51878;SHT31;37911;51.526;11.536;2022-11-20T07:49:20;-5.15;88.36
51878;SHT31;37911;51.526;11.536;2022-11-20T07:52:24;-5.04;88.23
51878;SHT31;37911;51.526;11.536;2022-11-20T07:55:28;-4.97;88.00
51878;SHT31;37911;51.526;11.536;2022-11-20T07:58:32;-5.00;87.97
51878;SHT31;37911;51.526;11.536;2022-11-20T08:01:36;-4.94;88.05
51878;SHT31;37911;51.526;11.536;2022-11-20T08:04:43;-4.88;88.00
51878;SHT31;37911;51.526;11.536;2022-11-20T08:07:47;-4.87;87.98
51878;SHT31;37911;51.526;11.536;2022-11-20T08:10:51;-4.79;88.03
51878;SHT31;37911;51.526;11.536;2022-11-20T08:14:15;-4.70;87.96
51878;SHT31;37911;51.526;11.536;2022-11-20T08:17:17;-4.74;87.89
51878;SHT31;37911;51.526;11.536;2022-11-20T08:20:23;-4.62;87.91
51878;SHT31;37911;51.526;11.536;2022-11-20T08:23:27;-4.56;87.59
51878;SHT31;37911;51.526;11.536;2022-11-20T08:26:31;-4.43;87.40
51878;SHT31;37911;51.526;11.536;2022-11-20T08:29:35;-4.49;87.33
51878;SHT31;37911;51.526;11.536;2022-11-20T08:32:38;-4.39;87.17
51878;SHT31;37911;51.526;11.536;2022-11-20T08:35:45;-4.25;86.88
51878;SHT31;37911;51.526;11.536;2022-11-20T08:38:49;-4.18;86.61
51878;SHT31;37911;51.526;11.536;2022-11-20T08:41:53;-4.09;86.31
51878;SHT31;37911;51.526;11.536;2022-11-20T08:44:57;-3.81;85.79
51878;SHT31;37911;51.526;11.536;2022-11-20T08:48:01;-3.58;85.03
51878;SHT31;37911;51.526;11.536;2022-11-20T08:51:08;-3.36;83.88
51878;SHT31;37911;51.526;11.536;2022-11-20T08:54:12;-3.16;83.41
51878;SHT31;37911;51.526;11.536;2022-11-20T08:57:15;-2.95;82.40
51878;SHT31;37911;51.526;11.536;2022-11-20T09:00:19;-2.78;81.69
51878;SHT31;37911;51.526;11.536;2022-11-20T09:03:23;-2.65;81.17
51878;SHT31;37911;51.526;11.536;2022-11-20T09:06:30;-2.33;80.41
51878;SHT31;37911;51.526;11.536;2022-11-20T09:09:34;-2.28;79.54
51878;SHT31;37911;51.526;11.536;2022-11-20T09:12:38;-1.90;79.08
51878;SHT31;37911;51.526;11.536;2022-11-20T09:15:41;-1.79;78.09
51878;SHT31;37911;51.526;11.536;2022-11-20T09:18:45;-1.66;77.73
51878;SHT31;37911;51.526;11.536;2022-11-20T09:21:52;-1.55;77.41
51878;SHT31;37911;51.526;11.536;2022-11-20T09:24:55;-1.52;77.36
51878;SHT31;37911;51.526;11.536;2022-11-20T09:28:00;-1.21;76.84
51878;SHT31;37911;51.526;11.536;2022-11-20T09:31:05;-1.05;76.09
51878;SHT31;37911;51.526;11.536;2022-11-20T09:34:09;-1.16;76.18
51878;SHT31;37911;51.526;11.536;2022-11-20T09:37:15;-1.12;76.28
51878;SHT31;37911;51.526;11.536;2022-11-20T09:40:21;-0.95;75.89
51878;SHT31;37911;51.526;11.536;2022-11-20T09:43:35;-1.18;76.32
51878;SHT31;37911;51.526;11.536;2022-11-20T09:46:45;-1.04;76.82
51878;SHT31;37911;51.526;11.536;2022-11-20T09:49:54;-1.14;76.63
51878;SHT31;37911;51.526;11.536;2022-11-20T09:53:11;-0.91;76.51
51878;SHT31;37911;51.526;11.536;2022-11-20T09:56:17;-0.91;76.73
51878;SHT31;37911;51.526;11.536;2022-11-20T09:59:32;-0.76;76.21
51878;SHT31;37911;51.526;11.536;2022-11-20T10:02:41;-0.90;76.39
51878;SHT31;37911;51.526;11.536;2022-11-20T10:05:51;-0.85;76.26
51878;SHT31;37911;51.526;11.536;2022-11-20T10:09:07;-0.81;76.06
51878;SHT31;37911;51.526;11.536;2022-11-20T10:12:23;-0.67;76.69
51878;SHT31;37911;51.526;11.536;2022-11-20T10:15:33;-0.53;76.48
51878;SHT31;37911;51.526;11.536;2022-11-20T10:18:54;-0.49;76.10
51878;SHT31;37911;51.526;11.536;2022-11-20T10:22:04;-0.12;75.80
51878;SHT31;37911;51.526;11.536;2022-11-20T10:25:17;-0.02;75.40
51878;SHT31;37911;51.526;11.536;2022-11-20T10:28:41;0.05;75.00
51878;SHT31;37911;51.526;11.536;2022-11-20T10:31:56;-0.01;75.25
51878;SHT31;37911;51.526;11.536;2022-11-20T10:35:09;0.06;74.78
51878;SHT31;37911;51.526;11.536;2022-11-20T10:38:20;0.09;74.36
51878;SHT31;37911;51.526;11.536;2022-11-20T10:41:31;0.30;74.57
51878;SHT31;37911;51.526;11.536;2022-11-20T10:44:36;0.36;74.55
51878;SHT31;37911;51.526;11.536;2022-11-20T10:47:56;0.56;74.11
51878;SHT31;37911;51.526;11.536;2022-11-20T10:51:16;0.75;74.15
51878;SHT31;37911;51.526;11.536;2022-11-20T10:54:26;0.94;72.89
51878;SHT31;37911;51.526;11.536;2022-11-20T10:57:48;0.99;73.68
51878;SHT31;37911;51.526;11.536;2022-11-20T11:01:03;1.00;72.82
51878;SHT31;37911;51.526;11.536;2022-11-20T11:04:18;0.96;72.88
51878;SHT31;37911;51.526;11.536;2022-11-20T11:07:28;1.03;73.43
51878;SHT31;37911;51.526;11.536;2022-11-20T11:10:36;1.00;72.30
51878;SHT31;37911;51.526;11.536;2022-11-20T11:13:46;1.08;72.46
51878;SHT31;37911;51.526;11.536;2022-11-20T11:16:51;1.21;71.82
51878;SHT31;37911;51.526;11.536;2022-11-20T11:20:00;1.31;72.79
51878;SHT31;37911;51.526;11.536;2022-11-20T11:23:04;1.30;72.86
51878;SHT31;37911;51.526;11.536;2022-11-20T11:26:19;1.45;73.07
51878;SHT31;37911;51.526;11.536;2022-11-20T11:29:26;1.43;72.16
51878;SHT31;37911;51.526;11.536;2022-11-20T11:32:30;1.44;72.62
51878;SHT31;37911;51.526;11.536;2022-11-20T11:35:43;1.47;71.80
51878;SHT31;37911;51.526;11.536;2022-11-20T11:38:51;1.50;72.26
51878;SHT31;37911;51.526;11.536;2022-11-20T11:41:57;1.45;72.78
51878;SHT31;37911;51.526;11.536;2022-11-20T11:45:06;1.55;72.74
51878;SHT31;37911;51.526;11.536;2022-11-20T11:48:10;1.66;71.95
51878;SHT31;37911;51.526;11.536;2022-11-20T11:51:20;1.66;71.90
51878;SHT31;37911;51.526;11.536;2022-11-20T11:54:25;1.91;71.92
51878;SHT31;37911;51.526;11.536;2022-11-20T11:57:40;2.01;70.91
51878;SHT31;37911;51.526;11.536;2022-11-20T12:00:57;2.03;70.34
51878;SHT31;37911;51.526;11.536;2022-11-20T12:04:05;2.02;69.95
51878;SHT31;37911;51.526;11.536;2022-11-20T12:07:19;1.99;69.55
51878;SHT31;37911;51.526;11.536;2022-11-20T12:10:37;2.12;69.56
51878;SHT31;37911;51.526;11.536;2022-11-20T12:13:48;2.06;69.50
51878;SHT31;37911;51.526;11.536;2022-11-20T12:16:56;2.10;69.47
51878;SHT31;37911;51.526;11.536;2022-11-20T12:20:00;2.03;69.25
51878;SHT31;37911;51.526;11.536;2022-11-20T12:23:08;2.05;68.41
51878;SHT31;37911;51.526;11.536;2022-11-20T12:26:19;2.09;67.97
51878;SHT31;37911;51.526;11.536;2022-11-20T12:29:36;2.23;67.70
51878;SHT31;37911;51.526;11.536;2022-11-20T12:33:04;2.34;67.13
51878;SHT31;37911;51.526;11.536;2022-11-20T12:36:19;2.36;66.57
51878;SHT31;37911;51.526;11.536;2022-11-20T12:39:33;2.22;66.53
51878;SHT31;37911;51.526;11.536;2022-11-20T12:42:48;2.20;66.13
51878;SHT31;37911;51.526;11.536;2022-11-20T12:46:21;2.13;66.98
51878;SHT31;37911;51.526;11.536;2022-11-20T12:49:37;2.09;67.74
51878;SHT31;37911;51.526;11.536;2022-11-20T12:52:48;2.17;67.92
51878;SHT31;37911;51.526;11.536;2022-11-20T12:56:02;2.12;67.38
51878;SHT31;37911;51.526;11.536;2022-11-20T12:59:23;1.92;68.55
51878;SHT31;37911;51.526;11.536;2022-11-20T13:02:41;1.92;68.03
51878;SHT31;37911;51.526;11.536;2022-11-20T13:05:55;1.89;68.78
51878;SHT31;37911;51.526;11.536;2022-11-20T13:09:07;1.92;68.67
51878;SHT31;37911;51.526;11.536;2022-11-20T13:12:14;1.92;68.82
51878;SHT31;37911;51.526;11.536;2022-11-20T13:15:33;1.83;68.55
51878;SHT31;37911;51.526;11.536;2022-11-20T13:18:41;1.54;68.69
51878;SHT31;37911;51.526;11.536;2022-11-20T13:21:49;1.48;69.47
51878;SHT31;37911;51.526;11.536;2022-11-20T13:24:53;1.40;70.61
51878;SHT31;37911;51.526;11.536;2022-11-20T13:27:59;1.34;70.41
51878;SHT31;37911;51.526;11.536;2022-11-20T13:31:03;1.33;71.15
51878;SHT31;37911;51.526;11.536;2022-11-20T13:34:12;1.26;71.45
51878;SHT31;37911;51.526;11.536;2022-11-20T13:37:28;1.16;72.02
51878;SHT31;37911;51.526;11.536;2022-11-20T13:40:32;1.01;73.00
51878;SHT31;37911;51.526;11.536;2022-11-20T13:43:38;0.81;73.84
51878;SHT31;37911;51.526;11.536;2022-11-20T13:46:44;0.68;73.86
51878;SHT31;37911;51.526;11.536;2022-11-20T13:49:49;0.66;74.33
51878;SHT31;37911;51.526;11.536;2022-11-20T13:53:01;0.66;74.36
51878;SHT31;37911;51.526;11.536;2022-11-20T13:56:14;0.65;73.56
51878;SHT31;37911;51.526;11.536;2022-11-20T13:59:30;0.62;73.35
51878;SHT31;37911;51.526;11.536;2022-11-20T14:02:37;0.66;73.21
51878;SHT31;37911;51.526;11.536;2022-11-20T14:05:48;0.66;72.93
51878;SHT31;37911;51.526;11.536;2022-11-20T14:08:56;0.68;73.06
51878;SHT31;37911;51.526;11.536;2022-11-20T14:12:04;0.63;73.35
51878;SHT31;37911;51.526;11.536;2022-11-20T14:15:25;0.62;73.54
51878;SHT31;37911;51.526;11.536;2022-11-20T14:18:29;0.55;74.11
51878;SHT31;37911;51.526;11.536;2022-11-20T14:21:33;0.50;74.76
51878;SHT31;37911;51.526;11.536;2022-11-20T14:24:39;0.45;75.94
51878;SHT31;37911;51.526;11.536;2022-11-20T14:27:47;0.42;76.68
51878;SHT31;37911;51.526;11.536;2022-11-20T14:30:53;0.30;77.71
51878;SHT31;37911;51.526;11.536;2022-11-20T14:33:57;0.21;78.80
51878;SHT31;37911;51.526;11.536;2022-11-20T14:37:03;0.16;79.54
51878;SHT31;37911;51.526;11.536;2022-11-20T14:40:28;0.12;79.84
51878;SHT31;37911;51.526;11.536;2022-11-20T14:43:32;0.05;80.47
51878;SHT31;37911;51.526;11.536;2022-11-20T14:46:36;0.01;81.15
51878;SHT31;37911;51.526;11.536;2022-11-20T14:49:40;-0.06;81.42
51878;SHT31;37911;51.526;11.536;2022-11-20T14:52:50;-0.07;81.83
51878;SHT31;37911;51.526;11.536;2022-11-20T14:55:58;-0.09;81.99
51878;SHT31;37911;51.526;11.536;2022-11-20T14:59:02;-0.10;82.32
51878;SHT31;37911;51.526;11.536;2022-11-20T15:02:09;-0.13;82.49
51878;SHT31;37911;51.526;11.536;2022-11-20T15:05:14;-0.19;82.54
51878;SHT31;37911;51.526;11.536;2022-11-20T15:08:18;-0.19;82.74
51878;SHT31;37911;51.526;11.536;2022-11-20T15:11:29;-0.29;83.13
51878;SHT31;37911;51.526;11.536;2022-11-20T15:14:36;-0.33;83.40
51878;SHT31;37911;51.526;11.536;2022-11-20T15:17:40;-0.34;83.41
51878;SHT31;37911;51.526;11.536;2022-11-20T15:20:44;-0.34;83.48
51878;SHT31;37911;51.526;11.536;2022-11-20T15:23:49;-0.43;83.78
51878;SHT31;37911;51.526;11.536;2022-11-20T15:26:56;-0.47;83.87
51878;SHT31;37911;51.526;11.536;2022-11-20T15:30:00;-0.47;84.00
51878;SHT31;37911;51.526;11.536;2022-11-20T15:33:07;-0.57;84.21
51878;SHT31;37911;51.526;11.536;2022-11-20T15:36:11;-0.57;84.27
51878;SHT31;37911;51.526;11.536;2022-11-20T15:39:15;-0.60;84.35
51878;SHT31;37911;51.526;11.536;2022-11-20T15:42:21;-0.66;84.41
51878;SHT31;37911;51.526;11.536;2022-11-20T15:45:25;-0.70;84.64
51878;SHT31;37911;51.526;11.536;2022-11-20T15:48:33;-0.73;84.76
51878;SHT31;37911;51.526;11.536;2022-11-20T15:51:40;-0.77;84.88
51878;SHT31;37911;51.526;11.536;2022-11-20T15:54:44;-0.83;85.12
51878;SHT31;37911;51.526;11.536;2022-11-20T15:57:51;-0.85;85.28
51878;SHT31;37911;51.526;11.536;2022-11-20T16:00:55;-0.91;85.30
51878;SHT31;37911;51.526;11.536;2022-11-20T16:03:59;-0.88;85.49
51878;SHT31;37911;51.526;11.536;2022-11-20T16:07:02;-0.87;85.42
51878;SHT31;37911;51.526;11.536;2022-11-20T16:10:07;-0.85;85.33
51878;SHT31;37911;51.526;11.536;2022-11-20T16:13:16;-0.88;85.20
51878;SHT31;37911;51.526;11.536;2022-11-20T16:16:34;-0.92;85.20
51878;SHT31;37911;51.526;11.536;2022-11-20T16:19:39;-0.91;85.22
51878;SHT31;37911;51.526;11.536;2022-11-20T16:22:42;-1.07;85.56
51878;SHT31;37911;51.526;11.536;2022-11-20T16:25:47;-1.08;85.76
51878;SHT31;37911;51.526;11.536;2022-11-20T16:28:53;-1.07;85.77
51878;SHT31;37911;51.526;11.536;2022-11-20T16:31:57;-1.08;85.75
51878;SHT31;37911;51.526;11.536;2022-11-20T16:35:01;-1.12;85.79
51878;SHT31;37911;51.526;11.536;2022-11-20T16:38:05;-1.12;85.90
51878;SHT31;37911;51.526;11.536;2022-11-20T16:41:10;-1.07;85.79
51878;SHT31;37911;51.526;11.536;2022-11-20T16:44:16;-1.11;85.76
51878;SHT31;37911;51.526;11.536;2022-11-20T16:47:20;-1.15;85.76
51878;SHT31;37911;51.526;11.536;2022-11-20T16:50:23;-1.21;85.83
51878;SHT31;37911;51.526;11.536;2022-11-20T16:53:27;-1.21;85.81
51878;SHT31;37911;51.526;11.536;2022-11-20T16:56:31;-1.28;85.79
51878;SHT31;37911;51.526;11.536;2022-11-20T16:59:38;-1.30;85.82
51878;SHT31;37911;51.526;11.536;2022-11-20T17:02:42;-1.31;85.91
51878;SHT31;37911;51.526;11.536;2022-11-20T17:05:46;-1.32;85.84
51878;SHT31;37911;51.526;11.536;2022-11-20T17:08:50;-1.36;85.71
51878;SHT31;37911;51.526;11.536;2022-11-20T17:11:54;-1.41;85.68
51878;SHT31;37911;51.526;11.536;2022-11-20T17:15:00;-1.46;86.09
51878;SHT31;37911;51.526;11.536;2022-11-20T17:18:04;-1.48;86.09
51878;SHT31;37911;51.526;11.536;2022-11-20T17:21:08;-1.53;86.40
51878;SHT31;37911;51.526;11.536;2022-11-20T17:24:13;-1.49;86.40
51878;SHT31;37911;51.526;11.536;2022-11-20T17:27:17;-1.49;86.44
51878;SHT31;37911;51.526;11.536;2022-11-20T17:30:23;-1.55;86.73
51878;SHT31;37911;51.526;11.536;2022-11-20T17:33:28;-1.55;86.85
51878;SHT31;37911;51.526;11.536;2022-11-20T17:36:32;-1.52;86.75
51878;SHT31;37911;51.526;11.536;2022-11-20T17:39:36;-1.58;87.26
51878;SHT31;37911;51.526;11.536;2022-11-20T17:42:40;-1.58;87.25
51878;SHT31;37911;51.526;11.536;2022-11-20T17:45:47;-1.60;87.41
51878;SHT31;37911;51.526;11.536;2022-11-20T17:48:50;-1.62;87.38
51878;SHT31;37911;51.526;11.536;2022-11-20T17:51:54;-1.60;87.50
51878;SHT31;37911;51.526;11.536;2022-11-20T17:54:58;-1.53;87.84
51878;SHT31;37911;51.526;11.536;2022-11-20T17:58:01;-1.52;87.74
51878;SHT31;37911;51.526;11.536;2022-11-20T18:01:09;-1.56;87.73
51878;SHT31;37911;51.526;11.536;2022-11-20T18:04:13;-1.55;87.80
51878;SHT31;37911;51.526;11.536;2022-11-20T18:07:17;-1.56;87.78
51878;SHT31;37911;51.526;11.536;2022-11-20T18:10:21;-1.53;87.85
51878;SHT31;37911;51.526;11.536;2022-11-20T18:13:24;-1.60;88.09
51878;SHT31;37911;51.526;11.536;2022-11-20T18:16:53;-1.56;88.03
51878;SHT31;37911;51.526;11.536;2022-11-20T18:19:57;-1.55;88.06
51878;SHT31;37911;51.526;11.536;2022-11-20T18:23:01;-1.46;87.97
51878;SHT31;37911;51.526;11.536;2022-11-20T18:26:05;-1.42;87.89
51878;SHT31;37911;51.526;11.536;2022-11-20T18:29:09;-1.45;87.83
51878;SHT31;37911;51.526;11.536;2022-11-20T18:32:17;-1.39;87.81
51878;SHT31;37911;51.526;11.536;2022-11-20T18:35:21;-1.42;87.67
51878;SHT31;37911;51.526;11.536;2022-11-20T18:38:25;-1.38;87.73
51878;SHT31;37911;51.526;11.536;2022-11-20T18:41:29;-1.35;87.68
51878;SHT31;37911;51.526;11.536;2022-11-20T18:44:46;-1.42;87.73
51878;SHT31;37911;51.526;11.536;2022-11-20T18:47:59;-1.42;87.95
51878;SHT31;37911;51.526;11.536;2022-11-20T18:51:06;-1.42;88.00
51878;SHT31;37911;51.526;11.536;2022-11-20T18:54:11;-1.38;87.99
51878;SHT31;37911;51.526;11.536;2022-11-20T18:57:16;-1.34;87.94
51878;SHT31;37911;51.526;11.536;2022-11-20T19:00:20;-1.35;87.93
51878;SHT31;37911;51.526;11.536;2022-11-20T19:03:29;-1.35;88.02
51878;SHT31;37911;51.526;11.536;2022-11-20T19:06:32;-1.32;88.04
51878;SHT31;37911;51.526;11.536;2022-11-20T19:09:36;-1.31;88.17
51878;SHT31;37911;51.526;11.536;2022-11-20T19:12:40;-1.31;88.21
51878;SHT31;37911;51.526;11.536;2022-11-20T19:15:44;-1.30;88.22
51878;SHT31;37911;51.526;11.536;2022-11-20T19:18:51;-1.24;88.24
51878;SHT31;37911;51.526;11.536;2022-11-20T19:21:55;-1.22;88.31
51878;SHT31;37911;51.526;11.536;2022-11-20T19:24:58;-1.19;88.27
51878;SHT31;37911;51.526;11.536;2022-11-20T19:28:02;-1.18;88.28